sensor_id;sensor_type;location;lat;lon;timestamp;P1;durP1;ratioP1;P2;durP2;ratioP2
15681;SDS011;7941;50.966;6.978;2022-11-23T00:00:44;4.97;;;2.00;;
15681;SDS011;7941;50.966;6.978;2022-11-23T00:03:13;5.93;;;2.00;;
15681;SDS011;7941;50.966;6.978;2022-11-23T00:05:39;5.90;;;1.97;;
15681;SDS011;7941;50.966;6.978;2022-11-23T00:08:06;4.00;;;1.60;;
15681;SDS011;7941;50.966;6.978;2022-11-23T00:10:32;5.43;;;1.90;;
15681;SDS011;7941;50.966;6.978;2022-11-23T00:12:58;5.07;;;1.87;;
15681;SDS011;7941;50.966;6.978;2022-11-23T00:15:24;5.23;;;1.87;;
15681;SDS011;7941;50.966;6.978;2022-11-23T00:17:50;5.87;;;1.50;;
15681;SDS011;7941;50.966;6.978;2022-11-23T00:20:16;7.07;;;2.20;;
15681;SDS011;7941;50.966;6.978;2022-11-23T00:22:42;4.10;;;1.77;;
15681;SDS011;7941;50.966;6.978;2022-11-23T00:25:09;4.23;;;1.50;;
15681;SDS011;7941;50.966;6.978;2022-11-23T00:27:35;5.77;;;1.80;;
15681;SDS011;7941;50.966;6.978;2022-11-23T00:30:01;3.63;;;1.90;;
15681;SDS011;7941;50.966;6.978;2022-11-23T00:32:30;3.37;;;1.70;;
15681;SDS011;7941;50.966;6.978;2022-11-23T00:34:56;4.93;;;2.00;;
15681;SDS011;7941;50.966;6.978;2022-11-23T00:37:22;3.83;;;1.67;;
15681;SDS011;7941;50.966;6.978;2022-11-23T00:39:48;4.60;;;1.37;;
15681;SDS011;7941;50.966;6.978;2022-11-23T00:42:14;4.43;;;1.60;;
15681;SDS011;7941;50.966;6.978;2022-11-23T00:44:41;1.90;;;1.23;;
15681;SDS011;7941;50.966;6.978;2022-11-23T00:47:07;5.13;;;1.70;;
15681;SDS011;7941;50.966;6.978;2022-11-23T00:49:33;4.50;;;1.77;;
15681;SDS011;7941;50.966;6.978;2022-11-23T00:51:59;4.63;;;1.90;;
15681;SDS011;7941;50.966;6.978;2022-11-23T00:54:25;5.07;;;1.87;;
15681;SDS011;7941;50.966;6.978;2022-11-23T00:56:51;3.17;;;1.17;;
15681;SDS011;7941;50.966;6.978;2022-11-23T00:59:17;3.03;;;1.27;;
15681;SDS011;7941;50.966;6.978;2022-11-23T01:01:43;3.37;;;1.30;;
15681;SDS011;7941;50.966;6.978;2022-11-23T01:04:09;4.80;;;1.67;;
15681;SDS011;7941;50.966;6.978;2022-11-23T01:06:36;5.57;;;1.63;;
15681;SDS011;7941;50.966;6.978;2022-11-23T01:09:07;3.23;;;1.67;;
15681;SDS011;7941;50.966;6.978;2022-11-23T01:11:34;3.63;;;1.70;;
15681;SDS011;7941;50.966;6.978;2022-11-23T01:14:00;3.03;;;1.80;;
15681;SDS011;7941;50.966;6.978;2022-11-23T01:16:27;2.33;;;1.50;;
15681;SDS011;7941;50.966;6.978;2022-11-23T01:18:54;5.27;;;1.47;;
15681;SDS011;7941;50.966;6.978;2022-11-23T01:21:20;4.20;;;1.80;;
15681;SDS011;7941;50.966;6.978;2022-11-23T01:23:46;4.10;;;1.47;;
15681;SDS011;7941;50.966;6.978;2022-11-23T01:26:12;3.53;;;1.60;;
15681;SDS011;7941;50.966;6.978;2022-11-23T01:28:39;2.60;;;1.23;;
15681;SDS011;7941;50.966;6.978;2022-11-23T01:33:34;3.90;;;1.43;;
15681;SDS011;7941;50.966;6.978;2022-11-23T01:36:11;2.90;;;1.30;;
15681;SDS011;7941;50.966;6.978;2022-11-23T01:38:38;2.97;;;1.63;;
15681;SDS011;7941;50.966;6.978;2022-11-23T01:41:23;4.47;;;1.63;;
15681;SDS011;7941;50.966;6.978;2022-11-23T01:43:50;6.27;;;1.93;;
15681;SDS011;7941;50.966;6.978;2022-11-23T01:46:16;3.80;;;1.70;;
15681;SDS011;7941;50.966;6.978;2022-11-23T01:51:10;3.70;;;1.77;;
15681;SDS011;7941;50.966;6.978;2022-11-23T01:53:37;4.33;;;1.90;;
15681;SDS011;7941;50.966;6.978;2022-11-23T01:56:05;3.40;;;1.60;;
15681;SDS011;7941;50.966;6.978;2022-11-23T01:58:32;2.37;;;1.33;;
15681;SDS011;7941;50.966;6.978;2022-11-23T02:00:59;5.53;;;1.70;;
15681;SDS011;7941;50.966;6.978;2022-11-23T02:03:27;4.23;;;1.60;;
15681;SDS011;7941;50.966;6.978;2022-11-23T02:05:54;2.30;;;1.50;;
15681;SDS011;7941;50.966;6.978;2022-11-23T02:08:24;3.00;;;1.50;;
15681;SDS011;7941;50.966;6.978;2022-11-23T02:10:51;7.23;;;1.93;;
15681;SDS011;7941;50.966;6.978;2022-11-23T02:13:17;2.77;;;1.67;;
15681;SDS011;7941;50.966;6.978;2022-11-23T02:15:43;3.83;;;2.00;;
15681;SDS011;7941;50.966;6.978;2022-11-23T02:18:14;7.33;;;2.20;;
15681;SDS011;7941;50.966;6.978;2022-11-23T02:20:42;4.53;;;1.63;;
15681;SDS011;7941;50.966;6.978;2022-11-23T02:28:10;5.93;;;1.87;;
15681;SDS011;7941;50.966;6.978;2022-11-23T02:30:37;4.10;;;1.87;;
15681;SDS011;7941;50.966;6.978;2022-11-23T02:33:05;8.10;;;1.77;;
15681;SDS011;7941;50.966;6.978;2022-11-23T02:35:31;6.30;;;1.77;;
15681;SDS011;7941;50.966;6.978;2022-11-23T02:37:58;5.30;;;2.00;;
15681;SDS011;7941;50.966;6.978;2022-11-23T02:40:33;7.33;;;2.13;;
15681;SDS011;7941;50.966;6.978;2022-11-23T02:43:00;6.40;;;2.13;;
15681;SDS011;7941;50.966;6.978;2022-11-23T02:47:56;4.57;;;2.07;;
15681;SDS011;7941;50.966;6.978;2022-11-23T02:50:22;4.30;;;1.87;;
15681;SDS011;7941;50.966;6.978;2022-11-23T02:52:48;4.30;;;2.00;;
15681;SDS011;7941;50.966;6.978;2022-11-23T02:55:14;3.63;;;1.83;;
15681;SDS011;7941;50.966;6.978;2022-11-23T02:57:41;3.27;;;1.70;;
15681;SDS011;7941;50.966;6.978;2022-11-23T03:00:07;5.73;;;2.00;;
15681;SDS011;7941;50.966;6.978;2022-11-23T03:02:33;6.30;;;1.83;;
15681;SDS011;7941;50.966;6.978;2022-11-23T03:04:59;4.03;;;1.43;;
15681;SDS011;7941;50.966;6.978;2022-11-23T03:07:26;4.07;;;2.30;;
15681;SDS011;7941;50.966;6.978;2022-11-23T03:09:52;6.50;;;2.43;;
15681;SDS011;7941;50.966;6.978;2022-11-23T03:12:18;4.47;;;1.87;;
15681;SDS011;7941;50.966;6.978;2022-11-23T03:14:44;4.73;;;1.60;;
15681;SDS011;7941;50.966;6.978;2022-11-23T03:17:10;8.10;;;2.53;;
15681;SDS011;7941;50.966;6.978;2022-11-23T03:19:36;5.13;;;2.13;;
15681;SDS011;7941;50.966;6.978;2022-11-23T03:22:02;6.30;;;1.80;;
15681;SDS011;7941;50.966;6.978;2022-11-23T03:24:29;5.03;;;1.80;;
15681;SDS011;7941;50.966;6.978;2022-11-23T03:26:55;5.73;;;2.03;;
15681;SDS011;7941;50.966;6.978;2022-11-23T03:29:21;7.93;;;1.60;;
15681;SDS011;7941;50.966;6.978;2022-11-23T03:31:50;6.10;;;1.90;;
15681;SDS011;7941;50.966;6.978;2022-11-23T03:34:16;4.93;;;1.77;;
15681;SDS011;7941;50.966;6.978;2022-11-23T03:36:42;5.07;;;1.93;;
15681;SDS011;7941;50.966;6.978;2022-11-23T03:39:08;9.03;;;2.53;;
15681;SDS011;7941;50.966;6.978;2022-11-23T03:41:34;4.63;;;1.93;;
15681;SDS011;7941;50.966;6.978;2022-11-23T03:44:01;5.77;;;2.13;;
15681;SDS011;7941;50.966;6.978;2022-11-23T03:46:27;4.37;;;2.13;;
15681;SDS011;7941;50.966;6.978;2022-11-23T03:48:53;6.47;;;1.80;;
15681;SDS011;7941;50.966;6.978;2022-11-23T03:51:19;7.60;;;2.30;;
15681;SDS011;7941;50.966;6.978;2022-11-23T03:53:46;4.17;;;1.70;;
15681;SDS011;7941;50.966;6.978;2022-11-23T03:56:12;7.13;;;2.47;;
15681;SDS011;7941;50.966;6.978;2022-11-23T03:58:38;5.30;;;2.20;;
15681;SDS011;7941;50.966;6.978;2022-11-23T04:01:04;6.77;;;1.93;;
15681;SDS011;7941;50.966;6.978;2022-11-23T04:03:31;5.73;;;2.07;;
15681;SDS011;7941;50.966;6.978;2022-11-23T04:05:57;5.30;;;1.70;;
15681;SDS011;7941;50.966;6.978;2022-11-23T04:08:23;6.50;;;1.77;;
15681;SDS011;7941;50.966;6.978;2022-11-23T04:10:49;8.33;;;2.30;;
15681;SDS011;7941;50.966;6.978;2022-11-23T04:13:15;5.13;;;1.80;;
15681;SDS011;7941;50.966;6.978;2022-11-23T04:15:41;6.00;;;2.03;;
15681;SDS011;7941;50.966;6.978;2022-11-23T04:18:08;2.43;;;1.57;;
15681;SDS011;7941;50.966;6.978;2022-11-23T04:20:34;7.80;;;2.13;;
15681;SDS011;7941;50.966;6.978;2022-11-23T04:23:00;5.13;;;2.30;;
15681;SDS011;7941;50.966;6.978;2022-11-23T04:25:26;4.83;;;1.50;;
15681;SDS011;7941;50.966;6.978;2022-11-23T04:27:52;9.27;;;2.13;;
15681;SDS011;7941;50.966;6.978;2022-11-23T04:30:18;4.80;;;1.83;;
15681;SDS011;7941;50.966;6.978;2022-11-23T04:32:44;5.47;;;2.10;;
15681;SDS011;7941;50.966;6.978;2022-11-23T04:35:10;7.47;;;2.00;;
15681;SDS011;7941;50.966;6.978;2022-11-23T04:37:37;6.10;;;1.83;;
15681;SDS011;7941;50.966;6.978;2022-11-23T04:40:03;7.20;;;2.37;;
15681;SDS011;7941;50.966;6.978;2022-11-23T04:42:29;6.93;;;2.10;;
15681;SDS011;7941;50.966;6.978;2022-11-23T04:44:55;5.80;;;2.00;;
15681;SDS011;7941;50.966;6.978;2022-11-23T04:47:22;5.37;;;2.07;;
15681;SDS011;7941;50.966;6.978;2022-11-23T04:49:48;7.57;;;2.30;;
15681;SDS011;7941;50.966;6.978;2022-11-23T04:52:14;5.13;;;3.03;;
15681;SDS011;7941;50.966;6.978;2022-11-23T04:54:41;7.63;;;2.20;;
15681;SDS011;7941;50.966;6.978;2022-11-23T04:57:07;6.60;;;2.73;;
15681;SDS011;7941;50.966;6.978;2022-11-23T04:59:33;6.90;;;2.53;;
15681;SDS011;7941;50.966;6.978;2022-11-23T05:01:59;11.43;;;2.80;;
15681;SDS011;7941;50.966;6.978;2022-11-23T05:04:25;8.17;;;3.90;;
15681;SDS011;7941;50.966;6.978;2022-11-23T05:06:52;8.00;;;2.70;;
15681;SDS011;7941;50.966;6.978;2022-11-23T05:09:18;6.37;;;2.63;;
15681;SDS011;7941;50.966;6.978;2022-11-23T05:11:44;7.80;;;2.50;;
15681;SDS011;7941;50.966;6.978;2022-11-23T05:14:10;6.83;;;2.40;;
15681;SDS011;7941;50.966;6.978;2022-11-23T05:16:36;7.50;;;2.73;;
15681;SDS011;7941;50.966;6.978;2022-11-23T05:19:02;8.20;;;2.27;;
15681;SDS011;7941;50.966;6.978;2022-11-23T05:21:29;7.30;;;2.23;;
15681;SDS011;7941;50.966;6.978;2022-11-23T05:23:55;6.63;;;2.20;;
15681;SDS011;7941;50.966;6.978;2022-11-23T05:26:21;6.70;;;2.33;;
15681;SDS011;7941;50.966;6.978;2022-11-23T05:28:47;7.80;;;2.80;;
15681;SDS011;7941;50.966;6.978;2022-11-23T05:31:13;4.43;;;2.10;;
15681;SDS011;7941;50.966;6.978;2022-11-23T05:33:39;6.70;;;2.37;;
15681;SDS011;7941;50.966;6.978;2022-11-23T05:36:06;7.97;;;2.60;;
15681;SDS011;7941;50.966;6.978;2022-11-23T05:38:32;7.13;;;2.23;;
15681;SDS011;7941;50.966;6.978;2022-11-23T05:40:58;6.23;;;2.37;;
15681;SDS011;7941;50.966;6.978;2022-11-23T05:43:24;7.33;;;1.77;;
15681;SDS011;7941;50.966;6.978;2022-11-23T05:45:50;7.23;;;2.50;;
15681;SDS011;7941;50.966;6.978;2022-11-23T05:48:17;4.37;;;1.83;;
15681;SDS011;7941;50.966;6.978;2022-11-23T05:50:43;6.23;;;2.23;;
15681;SDS011;7941;50.966;6.978;2022-11-23T05:53:09;5.30;;;2.10;;
15681;SDS011;7941;50.966;6.978;2022-11-23T05:55:35;6.00;;;2.57;;
15681;SDS011;7941;50.966;6.978;2022-11-23T05:58:01;6.10;;;2.03;;
15681;SDS011;7941;50.966;6.978;2022-11-23T06:00:28;5.80;;;2.20;;
15681;SDS011;7941;50.966;6.978;2022-11-23T06:02:58;6.07;;;2.47;;
15681;SDS011;7941;50.966;6.978;2022-11-23T06:05:25;6.97;;;2.50;;
15681;SDS011;7941;50.966;6.978;2022-11-23T06:07:51;5.33;;;2.00;;
15681;SDS011;7941;50.966;6.978;2022-11-23T06:10:18;5.83;;;2.10;;
15681;SDS011;7941;50.966;6.978;2022-11-23T06:12:44;7.30;;;2.10;;
15681;SDS011;7941;50.966;6.978;2022-11-23T06:15:10;7.00;;;2.13;;
15681;SDS011;7941;50.966;6.978;2022-11-23T06:17:36;6.13;;;2.70;;
15681;SDS011;7941;50.966;6.978;2022-11-23T06:20:05;5.47;;;2.30;;
15681;SDS011;7941;50.966;6.978;2022-11-23T06:22:32;6.63;;;2.00;;
15681;SDS011;7941;50.966;6.978;2022-11-23T06:24:58;4.30;;;1.73;;
15681;SDS011;7941;50.966;6.978;2022-11-23T06:27:24;7.70;;;2.10;;
15681;SDS011;7941;50.966;6.978;2022-11-23T06:29:50;4.00;;;1.70;;
15681;SDS011;7941;50.966;6.978;2022-11-23T06:32:16;3.80;;;1.67;;
15681;SDS011;7941;50.966;6.978;2022-11-23T06:34:42;5.53;;;1.77;;
15681;SDS011;7941;50.966;6.978;2022-11-23T06:37:08;3.90;;;1.63;;
15681;SDS011;7941;50.966;6.978;2022-11-23T06:39:35;5.87;;;1.90;;
15681;SDS011;7941;50.966;6.978;2022-11-23T06:42:01;7.60;;;2.27;;
15681;SDS011;7941;50.966;6.978;2022-11-23T06:44:27;6.10;;;1.63;;
15681;SDS011;7941;50.966;6.978;2022-11-23T06:46:54;6.97;;;2.30;;
15681;SDS011;7941;50.966;6.978;2022-11-23T06:49:20;9.50;;;2.47;;
15681;SDS011;7941;50.966;6.978;2022-11-23T06:51:46;8.07;;;2.53;;
15681;SDS011;7941;50.966;6.978;2022-11-23T06:54:12;10.63;;;2.70;;
15681;SDS011;7941;50.966;6.978;2022-11-23T06:56:38;8.27;;;2.47;;
15681;SDS011;7941;50.966;6.978;2022-11-23T06:59:05;6.67;;;2.50;;
15681;SDS011;7941;50.966;6.978;2022-11-23T07:01:31;7.77;;;2.57;;
15681;SDS011;7941;50.966;6.978;2022-11-23T07:03:57;7.97;;;3.23;;
15681;SDS011;7941;50.966;6.978;2022-11-23T07:06:24;5.43;;;2.10;;
15681;SDS011;7941;50.966;6.978;2022-11-23T07:08:50;9.47;;;2.90;;
15681;SDS011;7941;50.966;6.978;2022-11-23T07:11:18;9.40;;;2.27;;
15681;SDS011;7941;50.966;6.978;2022-11-23T07:13:45;10.07;;;2.93;;
15681;SDS011;7941;50.966;6.978;2022-11-23T07:16:11;12.07;;;2.43;;
15681;SDS011;7941;50.966;6.978;2022-11-23T07:18:39;9.43;;;2.77;;
15681;SDS011;7941;50.966;6.978;2022-11-23T07:21:05;9.50;;;2.70;;
15681;SDS011;7941;50.966;6.978;2022-11-23T07:23:31;6.73;;;2.70;;
15681;SDS011;7941;50.966;6.978;2022-11-23T07:25:57;9.03;;;3.07;;
15681;SDS011;7941;50.966;6.978;2022-11-23T07:28:23;9.47;;;3.63;;
15681;SDS011;7941;50.966;6.978;2022-11-23T07:30:49;6.73;;;2.20;;
15681;SDS011;7941;50.966;6.978;2022-11-23T07:33:18;10.97;;;3.27;;
15681;SDS011;7941;50.966;6.978;2022-11-23T07:35:45;9.10;;;2.80;;
15681;SDS011;7941;50.966;6.978;2022-11-23T07:38:12;8.47;;;2.70;;
15681;SDS011;7941;50.966;6.978;2022-11-23T07:40:38;7.47;;;2.90;;
15681;SDS011;7941;50.966;6.978;2022-11-23T07:43:05;9.80;;;3.20;;
15681;SDS011;7941;50.966;6.978;2022-11-23T07:45:32;12.90;;;3.30;;
15681;SDS011;7941;50.966;6.978;2022-11-23T07:47:59;7.87;;;2.90;;
15681;SDS011;7941;50.966;6.978;2022-11-23T07:50:25;7.97;;;2.70;;
15681;SDS011;7941;50.966;6.978;2022-11-23T07:52:52;10.10;;;2.90;;
15681;SDS011;7941;50.966;6.978;2022-11-23T07:55:18;7.80;;;3.03;;
15681;SDS011;7941;50.966;6.978;2022-11-23T07:57:44;7.87;;;2.43;;
15681;SDS011;7941;50.966;6.978;2022-11-23T08:00:10;10.50;;;3.30;;
15681;SDS011;7941;50.966;6.978;2022-11-23T08:02:37;9.07;;;3.00;;
15681;SDS011;7941;50.966;6.978;2022-11-23T08:05:04;7.97;;;2.70;;
15681;SDS011;7941;50.966;6.978;2022-11-23T08:07:30;6.63;;;2.87;;
15681;SDS011;7941;50.966;6.978;2022-11-23T08:09:56;8.73;;;2.77;;
15681;SDS011;7941;50.966;6.978;2022-11-23T08:12:23;11.07;;;3.13;;
15681;SDS011;7941;50.966;6.978;2022-11-23T08:14:49;10.00;;;3.30;;
15681;SDS011;7941;50.966;6.978;2022-11-23T08:17:16;7.80;;;2.73;;
15681;SDS011;7941;50.966;6.978;2022-11-23T08:19:42;12.77;;;3.33;;
15681;SDS011;7941;50.966;6.978;2022-11-23T08:22:08;12.17;;;3.20;;
15681;SDS011;7941;50.966;6.978;2022-11-23T08:24:35;14.10;;;4.00;;
15681;SDS011;7941;50.966;6.978;2022-11-23T08:27:01;10.90;;;3.07;;
15681;SDS011;7941;50.966;6.978;2022-11-23T08:29:28;15.47;;;3.30;;
15681;SDS011;7941;50.966;6.978;2022-11-23T08:31:54;11.43;;;3.90;;
15681;SDS011;7941;50.966;6.978;2022-11-23T08:34:20;10.20;;;3.50;;
15681;SDS011;7941;50.966;6.978;2022-11-23T08:36:46;13.70;;;3.37;;
15681;SDS011;7941;50.966;6.978;2022-11-23T08:39:13;13.13;;;3.97;;
15681;SDS011;7941;50.966;6.978;2022-11-23T08:41:40;12.27;;;3.50;;
15681;SDS011;7941;50.966;6.978;2022-11-23T08:44:07;10.47;;;3.67;;
15681;SDS011;7941;50.966;6.978;2022-11-23T08:46:35;11.23;;;3.47;;
15681;SDS011;7941;50.966;6.978;2022-11-23T08:49:01;11.17;;;3.90;;
15681;SDS011;7941;50.966;6.978;2022-11-23T08:51:29;13.03;;;3.50;;
15681;SDS011;7941;50.966;6.978;2022-11-23T08:53:55;12.53;;;3.33;;
15681;SDS011;7941;50.966;6.978;2022-11-23T08:56:21;11.73;;;3.37;;
15681;SDS011;7941;50.966;6.978;2022-11-23T08:58:47;9.30;;;3.20;;
15681;SDS011;7941;50.966;6.978;2022-11-23T09:01:14;13.60;;;3.23;;
15681;SDS011;7941;50.966;6.978;2022-11-23T09:03:41;15.57;;;3.50;;
15681;SDS011;7941;50.966;6.978;2022-11-23T09:06:07;13.50;;;3.20;;
15681;SDS011;7941;50.966;6.978;2022-11-23T09:08:34;16.17;;;6.50;;
15681;SDS011;7941;50.966;6.978;2022-11-23T09:11:01;10.13;;;3.20;;
15681;SDS011;7941;50.966;6.978;2022-11-23T09:13:27;11.03;;;2.93;;
15681;SDS011;7941;50.966;6.978;2022-11-23T09:15:57;10.57;;;2.80;;
15681;SDS011;7941;50.966;6.978;2022-11-23T09:18:23;16.03;;;3.20;;
15681;SDS011;7941;50.966;6.978;2022-11-23T09:20:50;9.43;;;3.60;;
15681;SDS011;7941;50.966;6.978;2022-11-23T09:23:16;10.50;;;3.60;;
15681;SDS011;7941;50.966;6.978;2022-11-23T09:25:42;9.90;;;3.23;;
15681;SDS011;7941;50.966;6.978;2022-11-23T09:28:12;7.03;;;3.00;;
15681;SDS011;7941;50.966;6.978;2022-11-23T09:30:39;13.20;;;3.40;;
15681;SDS011;7941;50.966;6.978;2022-11-23T09:33:06;11.07;;;3.10;;
15681;SDS011;7941;50.966;6.978;2022-11-23T09:35:34;8.13;;;3.10;;
15681;SDS011;7941;50.966;6.978;2022-11-23T09:38:01;8.10;;;2.73;;
15681;SDS011;7941;50.966;6.978;2022-11-23T09:40:31;12.47;;;3.77;;
15681;SDS011;7941;50.966;6.978;2022-11-23T09:45:45;13.33;;;3.03;;
15681;SDS011;7941;50.966;6.978;2022-11-23T09:48:14;6.87;;;3.30;;
15681;SDS011;7941;50.966;6.978;2022-11-23T09:50:45;11.07;;;3.33;;
15681;SDS011;7941;50.966;6.978;2022-11-23T09:53:17;10.30;;;3.10;;
15681;SDS011;7941;50.966;6.978;2022-11-23T09:55:46;9.33;;;2.90;;
15681;SDS011;7941;50.966;6.978;2022-11-23T09:58:14;9.87;;;3.00;;
15681;SDS011;7941;50.966;6.978;2022-11-23T10:00:48;5.53;;;2.40;;
15681;SDS011;7941;50.966;6.978;2022-11-23T10:03:16;9.40;;;2.73;;
15681;SDS011;7941;50.966;6.978;2022-11-23T10:05:48;11.30;;;3.17;;
15681;SDS011;7941;50.966;6.978;2022-11-23T10:10:51;8.07;;;2.80;;
15681;SDS011;7941;50.966;6.978;2022-11-23T10:18:50;10.70;;;2.73;;
15681;SDS011;7941;50.966;6.978;2022-11-23T10:26:25;9.50;;;2.67;;
15681;SDS011;7941;50.966;6.978;2022-11-23T10:28:53;8.17;;;2.80;;
15681;SDS011;7941;50.966;6.978;2022-11-23T10:31:21;7.00;;;2.73;;
15681;SDS011;7941;50.966;6.978;2022-11-23T10:36:16;6.80;;;3.37;;
15681;SDS011;7941;50.966;6.978;2022-11-23T10:38:43;6.53;;;2.30;;
15681;SDS011;7941;50.966;6.978;2022-11-23T10:41:10;8.17;;;2.70;;
15681;SDS011;7941;50.966;6.978;2022-11-23T10:43:38;8.60;;;3.07;;
15681;SDS011;7941;50.966;6.978;2022-11-23T10:46:26;7.23;;;2.67;;
15681;SDS011;7941;50.966;6.978;2022-11-23T10:48:53;7.40;;;3.03;;
15681;SDS011;7941;50.966;6.978;2022-11-23T10:53:52;8.67;;;2.50;;
15681;SDS011;7941;50.966;6.978;2022-11-23T10:56:19;5.80;;;2.27;;
15681;SDS011;7941;50.966;6.978;2022-11-23T10:58:45;7.67;;;2.67;;
15681;SDS011;7941;50.966;6.978;2022-11-23T11:01:16;5.73;;;2.57;;
15681;SDS011;7941;50.966;6.978;2022-11-23T11:03:44;8.43;;;2.70;;
15681;SDS011;7941;50.966;6.978;2022-11-23T11:06:10;4.50;;;2.17;;
15681;SDS011;7941;50.966;6.978;2022-11-23T11:13:48;9.77;;;2.30;;
15681;SDS011;7941;50.966;6.978;2022-11-23T11:18:43;6.63;;;2.87;;
15681;SDS011;7941;50.966;6.978;2022-11-23T11:23:51;8.30;;;2.97;;
15681;SDS011;7941;50.966;6.978;2022-11-23T11:26:19;8.77;;;2.53;;
15681;SDS011;7941;50.966;6.978;2022-11-23T11:28:46;8.13;;;2.77;;
15681;SDS011;7941;50.966;6.978;2022-11-23T11:31:29;5.00;;;2.33;;
15681;SDS011;7941;50.966;6.978;2022-11-23T11:36:44;12.50;;;4.27;;
15681;SDS011;7941;50.966;6.978;2022-11-23T11:39:24;7.87;;;2.47;;
15681;SDS011;7941;50.966;6.978;2022-11-23T11:41:52;5.97;;;2.40;;
15681;SDS011;7941;50.966;6.978;2022-11-23T11:44:23;7.40;;;2.30;;
15681;SDS011;7941;50.966;6.978;2022-11-23T11:46:57;8.03;;;2.93;;
15681;SDS011;7941;50.966;6.978;2022-11-23T11:49:29;10.47;;;2.67;;
15681;SDS011;7941;50.966;6.978;2022-11-23T11:52:07;8.73;;;2.50;;
15681;SDS011;7941;50.966;6.978;2022-11-23T11:54:35;7.20;;;2.80;;
15681;SDS011;7941;50.966;6.978;2022-11-23T11:57:06;5.53;;;2.60;;
15681;SDS011;7941;50.966;6.978;2022-11-23T11:59:36;9.87;;;5.30;;
15681;SDS011;7941;50.966;6.978;2022-11-23T12:02:26;9.00;;;2.40;;
15681;SDS011;7941;50.966;6.978;2022-11-23T12:05:06;9.77;;;4.20;;
15681;SDS011;7941;50.966;6.978;2022-11-23T12:07:40;8.90;;;5.57;;
15681;SDS011;7941;50.966;6.978;2022-11-23T12:12:42;5.87;;;2.70;;
15681;SDS011;7941;50.966;6.978;2022-11-23T12:15:15;6.37;;;2.47;;
15681;SDS011;7941;50.966;6.978;2022-11-23T12:17:47;8.83;;;3.60;;
15681;SDS011;7941;50.966;6.978;2022-11-23T12:20:20;9.37;;;2.80;;
15681;SDS011;7941;50.966;6.978;2022-11-23T12:23:07;10.63;;;2.77;;
15681;SDS011;7941;50.966;6.978;2022-11-23T12:25:40;4.83;;;2.47;;
15681;SDS011;7941;50.966;6.978;2022-11-23T12:33:27;7.37;;;2.47;;
15681;SDS011;7941;50.966;6.978;2022-11-23T12:41:13;4.27;;;2.00;;
15681;SDS011;7941;50.966;6.978;2022-11-23T12:51:40;4.60;;;2.17;;
15681;SDS011;7941;50.966;6.978;2022-11-23T12:54:23;5.27;;;1.70;;
15681;SDS011;7941;50.966;6.978;2022-11-23T12:59:25;4.37;;;1.83;;
15681;SDS011;7941;50.966;6.978;2022-11-23T13:01:56;6.00;;;1.90;;
15681;SDS011;7941;50.966;6.978;2022-11-23T13:04:36;5.07;;;2.27;;
15681;SDS011;7941;50.966;6.978;2022-11-23T13:12:35;7.53;;;2.43;;
15681;SDS011;7941;50.966;6.978;2022-11-23T13:22:56;5.27;;;2.47;;
15681;SDS011;7941;50.966;6.978;2022-11-23T13:25:27;5.23;;;2.70;;
15681;SDS011;7941;50.966;6.978;2022-11-23T13:28:03;4.93;;;2.53;;
15681;SDS011;7941;50.966;6.978;2022-11-23T13:30:30;9.47;;;3.03;;
15681;SDS011;7941;50.966;6.978;2022-11-23T13:40:41;5.43;;;2.80;;
15681;SDS011;7941;50.966;6.978;2022-11-23T13:46:18;6.57;;;2.90;;
15681;SDS011;7941;50.966;6.978;2022-11-23T13:48:53;6.37;;;3.23;;
15681;SDS011;7941;50.966;6.978;2022-11-23T13:51:32;4.27;;;2.83;;
15681;SDS011;7941;50.966;6.978;2022-11-23T13:54:04;4.30;;;2.70;;
15681;SDS011;7941;50.966;6.978;2022-11-23T13:56:34;4.20;;;2.27;;
15681;SDS011;7941;50.966;6.978;2022-11-23T14:04:25;5.70;;;2.60;;
15681;SDS011;7941;50.966;6.978;2022-11-23T14:11:49;4.27;;;2.40;;
15681;SDS011;7941;50.966;6.978;2022-11-23T14:14:21;3.70;;;2.60;;
15681;SDS011;7941;50.966;6.978;2022-11-23T14:16:55;5.63;;;2.50;;
15681;SDS011;7941;50.966;6.978;2022-11-23T14:19:35;5.80;;;2.40;;
15681;SDS011;7941;50.966;6.978;2022-11-23T14:22:21;6.23;;;2.63;;
15681;SDS011;7941;50.966;6.978;2022-11-23T14:30:19;8.37;;;2.83;;
15681;SDS011;7941;50.966;6.978;2022-11-23T14:35:22;5.50;;;2.30;;
15681;SDS011;7941;50.966;6.978;2022-11-23T14:40:26;7.37;;;3.90;;
15681;SDS011;7941;50.966;6.978;2022-11-23T14:42:55;6.40;;;2.63;;
15681;SDS011;7941;50.966;6.978;2022-11-23T14:45:31;7.47;;;2.77;;
15681;SDS011;7941;50.966;6.978;2022-11-23T14:50:46;9.20;;;3.13;;
15681;SDS011;7941;50.966;6.978;2022-11-23T14:53:18;5.17;;;2.33;;
15681;SDS011;7941;50.966;6.978;2022-11-23T14:55:46;5.07;;;2.27;;
15681;SDS011;7941;50.966;6.978;2022-11-23T14:58:12;6.40;;;2.77;;
15681;SDS011;7941;50.966;6.978;2022-11-23T15:00:40;9.17;;;2.63;;
15681;SDS011;7941;50.966;6.978;2022-11-23T15:03:19;6.30;;;2.37;;
15681;SDS011;7941;50.966;6.978;2022-11-23T15:06:13;7.57;;;2.50;;
15681;SDS011;7941;50.966;6.978;2022-11-23T15:08:48;6.80;;;2.53;;
15681;SDS011;7941;50.966;6.978;2022-11-23T15:11:18;6.90;;;2.20;;
15681;SDS011;7941;50.966;6.978;2022-11-23T15:13:47;5.83;;;3.33;;
15681;SDS011;7941;50.966;6.978;2022-11-23T15:16:13;5.97;;;2.30;;
15681;SDS011;7941;50.966;6.978;2022-11-23T15:18:41;3.53;;;2.07;;
15681;SDS011;7941;50.966;6.978;2022-11-23T15:23:40;4.13;;;2.33;;
15681;SDS011;7941;50.966;6.978;2022-11-23T15:28:39;8.33;;;4.17;;
15681;SDS011;7941;50.966;6.978;2022-11-23T15:31:18;5.60;;;2.53;;
15681;SDS011;7941;50.966;6.978;2022-11-23T15:33:46;6.40;;;2.67;;
15681;SDS011;7941;50.966;6.978;2022-11-23T15:36:13;7.07;;;2.60;;
15681;SDS011;7941;50.966;6.978;2022-11-23T15:38:41;6.20;;;2.13;;
15681;SDS011;7941;50.966;6.978;2022-11-23T15:41:07;8.30;;;2.87;;
15681;SDS011;7941;50.966;6.978;2022-11-23T15:43:34;9.87;;;2.73;;
15681;SDS011;7941;50.966;6.978;2022-11-23T15:46:01;3.30;;;1.70;;
15681;SDS011;7941;50.966;6.978;2022-11-23T15:48:32;6.97;;;2.90;;
15681;SDS011;7941;50.966;6.978;2022-11-23T15:51:00;5.40;;;2.33;;
15681;SDS011;7941;50.966;6.978;2022-11-23T15:53:31;6.20;;;2.80;;
15681;SDS011;7941;50.966;6.978;2022-11-23T15:55:58;6.50;;;3.27;;
15681;SDS011;7941;50.966;6.978;2022-11-23T15:58:25;9.13;;;5.40;;
15681;SDS011;7941;50.966;6.978;2022-11-23T16:00:53;7.50;;;3.97;;
15681;SDS011;7941;50.966;6.978;2022-11-23T16:06:07;5.43;;;3.37;;
15681;SDS011;7941;50.966;6.978;2022-11-23T16:08:33;9.00;;;3.00;;
15681;SDS011;7941;50.966;6.978;2022-11-23T16:11:00;7.70;;;3.30;;
15681;SDS011;7941;50.966;6.978;2022-11-23T16:13:36;8.87;;;4.30;;
15681;SDS011;7941;50.966;6.978;2022-11-23T16:16:07;8.97;;;3.63;;
15681;SDS011;7941;50.966;6.978;2022-11-23T16:18:34;10.43;;;3.33;;
15681;SDS011;7941;50.966;6.978;2022-11-23T16:21:01;9.33;;;3.97;;
15681;SDS011;7941;50.966;6.978;2022-11-23T16:26:08;13.43;;;5.37;;
15681;SDS011;7941;50.966;6.978;2022-11-23T16:28:36;22.57;;;10.70;;
15681;SDS011;7941;50.966;6.978;2022-11-23T16:31:02;20.30;;;9.97;;
15681;SDS011;7941;50.966;6.978;2022-11-23T16:33:29;12.33;;;7.67;;
15681;SDS011;7941;50.966;6.978;2022-11-23T16:35:55;11.77;;;6.13;;
15681;SDS011;7941;50.966;6.978;2022-11-23T16:38:22;11.63;;;5.23;;
15681;SDS011;7941;50.966;6.978;2022-11-23T16:40:48;14.10;;;5.37;;
15681;SDS011;7941;50.966;6.978;2022-11-23T16:43:15;13.77;;;6.67;;
15681;SDS011;7941;50.966;6.978;2022-11-23T16:45:45;13.27;;;6.63;;
15681;SDS011;7941;50.966;6.978;2022-11-23T16:48:34;13.97;;;5.07;;
15681;SDS011;7941;50.966;6.978;2022-11-23T16:51:01;13.10;;;4.77;;
15681;SDS011;7941;50.966;6.978;2022-11-23T16:53:27;9.70;;;5.47;;
15681;SDS011;7941;50.966;6.978;2022-11-23T16:55:55;9.07;;;4.60;;
15681;SDS011;7941;50.966;6.978;2022-11-23T16:58:29;12.03;;;4.47;;
15681;SDS011;7941;50.966;6.978;2022-11-23T17:00:55;8.77;;;3.87;;
15681;SDS011;7941;50.966;6.978;2022-11-23T17:03:22;7.23;;;4.10;;
15681;SDS011;7941;50.966;6.978;2022-11-23T17:05:49;10.50;;;2.93;;
15681;SDS011;7941;50.966;6.978;2022-11-23T17:08:15;8.23;;;3.53;;
15681;SDS011;7941;50.966;6.978;2022-11-23T17:10:41;9.63;;;3.50;;
15681;SDS011;7941;50.966;6.978;2022-11-23T17:13:15;9.80;;;3.43;;